Time;durP1;ratioP1;P1;durP2;ratioP2;P2;SDS_P1;SDS_P2;PMS_P1;PMS_P2;Temp;Humidity;BMP_temperature;BMP_pressure;BME280_temperature;BME280_humidity;BME280_pressure;Samples;Min_cycle;Max_cycle;Signal;HPM_P1;HPM_P2
2021/06/30 00:00:23;;;;;;;4.35;2.83;;;;;;;15.29;82.65;99110.72;4975334;28;20042;-74
2021/06/30 00:02:49;;;;;;;5.82;2.92;;;;;;;15.28;82.24;99124.13;4973643;28;20486;-73
2021/06/30 00:05:14;;;;;;;5.43;2.90;;;;;;;15.25;82.04;99126.03;4973655;28;20034;-75
2021/06/30 00:07:40;;;;;;;3.63;2.90;;;;;;;15.28;82.16;99122.28;4973931;28;20038;-75
2021/06/30 00:10:08;;;;;;;4.78;2.33;;;;;;;15.24;81.77;99119.06;4973771;28;20089;-73
2021/06/30 00:12:34;;;;;;;2.78;2.10;;;;;;;15.23;82.10;99127.13;4972865;28;20046;-73
2021/06/30 00:15:00;;;;;;;3.67;2.38;;;;;;;15.22;82.64;99133.41;4973406;28;20035;-73
2021/06/30 00:17:26;;;;;;;3.33;2.30;;;;;;;15.21;82.46;99135.25;4972253;28;20046;-74
2021/06/30 00:19:51;;;;;;;3.58;2.47;;;;;;;15.22;82.51;99138.72;4972423;28;20403;-74
2021/06/30 00:22:17;;;;;;;3.45;2.58;;;;;;;15.20;82.72;99133.53;4974334;28;20046;-74
2021/06/30 00:24:42;;;;;;;2.90;2.13;;;;;;;15.21;82.34;99135.25;4975986;28;20046;-73
2021/06/30 00:27:08;;;;;;;4.15;2.30;;;;;;;15.18;81.88;99137.28;4973838;28;20073;-73
2021/06/30 00:29:33;;;;;;;4.38;2.38;;;;;;;15.13;81.90;99127.00;4973628;28;20038;-75
2021/06/30 00:31:58;;;;;;;2.40;1.95;;;;;;;15.12;81.70;99121.84;4973924;28;20097;-74
2021/06/30 00:34:24;;;;;;;2.85;1.92;;;;;;;15.14;81.86;99138.50;4955496;28;20035;-72
2021/06/30 00:36:49;;;;;;;2.85;1.95;;;;;;;15.10;81.21;99129.91;4973391;28;20038;-72
2021/06/30 00:39:16;;;;;;;3.63;2.13;;;;;;;15.15;81.36;99134.88;4973598;28;20039;-72
2021/06/30 00:41:42;;;;;;;2.33;1.95;;;;;;;15.16;81.83;99134.75;4976015;28;20074;-72
2021/06/30 00:44:08;;;;;;;3.17;1.92;;;;;;;15.21;81.63;99140.53;4973393;28;20462;-73
2021/06/30 00:46:35;;;;;;;3.05;1.98;;;;;;;15.23;81.76;99128.00;4971989;28;20033;-74
2021/06/30 00:49:01;;;;;;;2.47;2.00;;;;;;;15.25;81.48;99127.84;4972284;28;20035;-72
2021/06/30 00:51:27;;;;;;;2.28;1.58;;;;;;;15.23;80.26;99129.78;4971951;28;20510;-73
2021/06/30 00:53:54;;;;;;;2.00;1.50;;;;;;;15.24;80.10;99128.84;4971632;28;20046;-74
2021/06/30 00:56:23;;;;;;;4.15;1.73;;;;;;;15.26;80.48;99126.91;4972260;28;20031;-74
2021/06/30 00:59:00;;;;;;;2.90;1.95;;;;;;;15.30;80.60;99127.50;4972266;28;20031;-73
2021/06/30 01:01:26;;;;;;;2.08;1.67;;;;;;;15.33;80.85;99119.28;4946773;28;20061;-73
2021/06/30 01:03:52;;;;;;;2.00;1.67;;;;;;;15.37;80.81;99112.75;4972090;28;20507;-74
2021/06/30 01:06:18;;;;;;;2.40;1.63;;;;;;;15.37;81.32;99112.75;4971494;28;20553;-73
2021/06/30 01:08:44;;;;;;;1.92;1.40;;;;;;;15.36;80.74;99106.63;4953891;28;20542;-74
2021/06/30 01:11:10;;;;;;;4.05;1.50;;;;;;;15.34;80.48;99102.41;4971016;28;20126;-75
2021/06/30 01:13:36;;;;;;;3.03;1.92;;;;;;;15.31;80.44;99099.97;4970473;28;20034;-74
2021/06/30 01:16:02;;;;;;;2.55;1.45;;;;;;;15.28;81.10;99095.75;4971437;28;20485;-74
2021/06/30 01:18:30;;;;;;;1.98;1.45;;;;;;;15.25;80.78;99094.19;4970758;28;20038;-72
2021/06/30 01:20:57;;;;;;;2.08;1.48;;;;;;;15.21;80.41;99095.41;4971056;28;20031;-70
2021/06/30 01:23:23;;;;;;;3.00;1.98;;;;;;;15.17;80.51;99093.94;4971420;28;20039;-71
2021/06/30 01:25:49;;;;;;;2.13;1.52;;;;;;;15.15;81.01;99087.91;4971492;28;20089;-71
2021/06/30 01:28:16;;;;;;;2.70;1.50;;;;;;;15.19;81.36;99080.56;4970481;28;20038;-71
2021/06/30 01:30:43;;;;;;;1.98;1.65;;;;;;;15.22;81.50;99080.31;4970562;28;20759;-72
2021/06/30 01:33:09;;;;;;;2.08;1.65;;;;;;;15.21;81.11;99066.19;4970903;28;20042;-72
2021/06/30 01:35:35;;;;;;;1.95;1.35;;;;;;;15.23;81.08;99066.94;4970418;28;20038;-75
2021/06/30 01:38:01;;;;;;;2.55;1.60;;;;;;;15.23;81.00;99069.56;4971035;28;20063;-73
2021/06/30 01:40:27;;;;;;;3.40;1.83;;;;;;;15.23;80.76;99063.41;4970959;28;20058;-72
2021/06/30 01:42:57;;;;;;;2.38;1.77;;;;;;;15.21;80.75;99062.66;4971273;28;20031;-74
2021/06/30 01:45:23;;;;;;;2.63;1.85;;;;;;;15.19;81.02;99052.19;4970949;28;20037;-75
2021/06/30 01:47:49;;;;;;;2.42;1.60;;;;;;;15.20;82.00;99050.38;4971006;28;20030;-74
2021/06/30 01:50:15;;;;;;;3.58;2.03;;;;;;;15.18;81.78;99044.34;4970701;28;20371;-74
2021/06/30 01:52:42;;;;;;;3.97;2.00;;;;;;;15.18;82.50;99049.66;4970642;28;20051;-71
2021/06/30 01:55:09;;;;;;;2.72;2.00;;;;;;;15.18;81.94;99050.50;4970879;28;20035;-72
2021/06/30 01:57:44;;;;;;;3.55;2.00;;;;;;;15.18;82.89;99042.53;4970489;28;20034;-74
2021/06/30 02:00:12;;;;;;;3.35;1.80;;;;;;;15.21;82.42;99052.91;4970646;28;20047;-74
2021/06/30 02:02:38;;;;;;;2.38;2.03;;;;;;;15.27;82.54;99042.78;4953580;28;20031;-74
2021/06/30 02:05:08;;;;;;;6.00;2.63;;;;;;;15.21;82.74;99038.78;4970685;28;20039;-73
2021/06/30 02:07:33;;;;;;;3.65;2.33;;;;;;;15.19;83.05;99038.91;4969371;28;20039;-74
2021/06/30 02:09:59;;;;;;;3.35;2.72;;;;;;;15.16;82.83;99033.00;4953073;28;20035;-74
2021/06/30 02:12:25;;;;;;;3.47;2.17;;;;;;;15.15;82.64;99037.47;4970759;28;20043;-73
2021/06/30 02:14:50;;;;;;;3.78;2.53;;;;;;;15.16;82.72;99043.63;4970818;28;20034;-72
2021/06/30 02:17:18;;;;;;;3.13;2.53;;;;;;;15.20;82.98;99040.59;4956451;28;20059;-72
2021/06/30 02:19:45;;;;;;;3.05;2.20;;;;;;;15.22;83.02;99045.78;4970654;28;20443;-71
2021/06/30 02:22:11;;;;;;;5.07;3.03;;;;;;;15.23;83.19;99040.38;4971512;28;20058;-72
2021/06/30 02:24:36;;;;;;;3.28;2.83;;;;;;;15.22;82.80;99043.97;4989555;28;20034;-72
2021/06/30 02:27:02;;;;;;;4.93;3.58;;;;;;;15.28;83.00;99047.09;4993904;28;20058;-72
2021/06/30 02:29:27;;;;;;;3.35;2.67;;;;;;;15.29;82.63;99047.00;4993472;28;20041;-72
2021/06/30 02:31:52;;;;;;;7.80;3.20;;;;;;;15.31;82.97;99045.06;4994293;28;20445;-73
2021/06/30 02:34:18;;;;;;;3.35;2.72;;;;;;;15.34;83.21;99043.97;4993870;28;20030;-72
2021/06/30 02:36:43;;;;;;;3.65;2.83;;;;;;;15.37;82.88;99041.06;4993288;28;20038;-72
2021/06/30 02:39:08;;;;;;;4.22;3.03;;;;;;;15.36;82.52;99039.38;4975910;28;20038;-72
2021/06/30 02:41:34;;;;;;;4.05;3.00;;;;;;;15.38;82.62;99045.38;4993302;28;20085;-72
2021/06/30 02:43:59;;;;;;;3.13;2.72;;;;;;;15.38;82.32;99043.59;4993537;28;20088;-72
2021/06/30 02:46:24;;;;;;;3.53;2.85;;;;;;;15.39;82.44;99047.94;4976689;28;20039;-72
2021/06/30 02:48:50;;;;;;;4.10;3.30;;;;;;;15.40;82.71;99048.75;4974612;28;20034;-72
2021/06/30 02:51:15;;;;;;;4.72;2.60;;;;;;;15.44;82.46;99051.06;4973768;28;20047;-72
2021/06/30 02:53:41;;;;;;;5.13;3.67;;;;;;;15.46;82.54;99051.78;4973985;28;20495;-71
2021/06/30 02:56:06;;;;;;;4.07;2.97;;;;;;;15.51;82.57;99043.44;4973939;28;20039;-71
2021/06/30 02:58:31;;;;;;;3.53;2.83;;;;;;;15.55;82.48;99046.69;4973807;28;20038;-73
2021/06/30 03:00:57;;;;;;;4.45;3.28;;;;;;;15.55;82.38;99050.16;4973305;28;20043;-71
2021/06/30 03:03:22;;;;;;;4.40;3.38;;;;;;;15.55;82.42;99049.34;4974227;28;20031;-72
2021/06/30 03:05:47;;;;;;;4.72;3.45;;;;;;;15.59;82.70;99051.63;4974227;28;20113;-72
2021/06/30 03:08:13;;;;;;;6.13;3.08;;;;;;;15.60;81.90;99058.63;4974626;28;20038;-71
2021/06/30 03:10:38;;;;;;;5.20;3.03;;;;;;;15.62;82.14;99053.19;4974388;28;20038;-72
2021/06/30 03:13:03;;;;;;;4.05;3.35;;;;;;;15.63;81.84;99057.53;4974390;28;20906;-71
2021/06/30 03:15:29;;;;;;;6.03;3.63;;;;;;;15.64;81.93;99051.25;4974175;28;20101;-72
2021/06/30 03:17:54;;;;;;;3.88;2.70;;;;;;;15.62;82.07;99047.88;4973784;28;20065;-73
2021/06/30 03:20:19;;;;;;;7.78;3.42;;;;;;;15.64;81.85;99044.09;4972243;28;20107;-71
2021/06/30 03:22:45;;;;;;;4.22;3.00;;;;;;;15.67;82.46;99057.13;4973198;28;20030;-71
2021/06/30 03:25:13;;;;;;;3.30;2.67;;;;;;;15.65;81.80;99048.47;4973421;28;20050;-71
2021/06/30 03:27:39;;;;;;;4.30;3.17;;;;;;;15.68;82.22;99055.34;4972471;28;20038;-71
2021/06/30 03:30:07;;;;;;;3.80;2.70;;;;;;;15.66;81.96;99055.47;4972922;28;20046;-72
2021/06/30 03:32:32;;;;;;;4.13;3.25;;;;;;;15.67;82.12;99049.16;4972725;28;20125;-73
2021/06/30 03:34:58;;;;;;;3.17;2.47;;;;;;;15.70;82.10;99050.75;4972990;28;20041;-71
2021/06/30 03:37:23;;;;;;;3.42;2.60;;;;;;;15.68;82.03;99052.69;4971844;28;20089;-71
2021/06/30 03:39:49;;;;;;;4.43;3.42;;;;;;;15.64;82.37;99052.09;4972837;28;20054;-71
2021/06/30 03:42:14;;;;;;;4.45;2.70;;;;;;;15.64;82.47;99057.41;4972995;28;20034;-71
2021/06/30 03:44:40;;;;;;;2.83;2.47;;;;;;;15.67;82.70;99058.94;4972921;28;20030;-72
2021/06/30 03:47:05;;;;;;;3.17;2.88;;;;;;;15.70;82.47;99057.88;4972720;28;20069;-72
2021/06/30 03:49:30;;;;;;;2.58;2.30;;;;;;;15.67;82.26;99058.94;4973051;28;20110;-73
2021/06/30 03:51:56;;;;;;;4.82;3.13;;;;;;;15.72;82.39;99058.63;4972897;28;20118;-73
2021/06/30 03:54:24;;;;;;;3.35;2.70;;;;;;;15.75;82.69;99066.31;4973107;28;20027;-71
2021/06/30 03:56:53;;;;;;;3.75;2.30;;;;;;;15.75;82.10;99064.53;4972558;28;21179;-72
2021/06/30 03:59:20;;;;;;;3.97;2.67;;;;;;;15.74;82.69;99067.31;4972555;28;20487;-72
2021/06/30 04:01:46;;;;;;;3.78;2.92;;;;;;;15.71;82.67;99057.78;4972471;28;20109;-71
2021/06/30 04:04:13;;;;;;;3.17;2.55;;;;;;;15.69;83.10;99070.31;4972457;28;20066;-71
2021/06/30 04:06:40;;;;;;;3.58;2.35;;;;;;;15.67;83.14;99064.28;4972143;28;20054;-71
2021/06/30 04:09:05;;;;;;;2.88;2.55;;;;;;;15.67;82.95;99069.59;4972421;28;20031;-73
2021/06/30 04:11:31;;;;;;;2.42;2.10;;;;;;;15.63;83.54;99069.00;4972403;28;20615;-73
2021/06/30 04:13:56;;;;;;;2.55;1.92;;;;;;;15.58;83.05;99068.53;4972781;28;20110;-73
2021/06/30 04:16:22;;;;;;;2.30;1.90;;;;;;;15.54;83.01;99072.41;4975017;28;20521;-71
2021/06/30 04:18:47;;;;;;;3.47;1.70;;;;;;;15.49;82.94;99068.44;4972356;28;20035;-73
2021/06/30 04:21:12;;;;;;;1.92;1.73;;;;;;;15.48;83.02;99072.03;4972126;28;20062;-72
2021/06/30 04:23:38;;;;;;;2.53;2.00;;;;;;;15.44;83.31;99082.94;4972272;28;20045;-72
2021/06/30 04:26:04;;;;;;;2.20;1.98;;;;;;;15.44;83.15;99087.41;4972396;28;20046;-72
2021/06/30 04:28:29;;;;;;;2.72;1.80;;;;;;;15.42;82.40;99084.03;4972639;28;20097;-75
2021/06/30 04:30:55;;;;;;;1.65;1.25;;;;;;;15.39;82.13;99089.59;4973173;28;20043;-74
2021/06/30 04:33:21;;;;;;;1.75;1.30;;;;;;;15.35;81.34;99083.66;4958968;28;20041;-73
2021/06/30 04:35:46;;;;;;;2.08;1.60;;;;;;;15.35;81.74;99088.13;4976319;28;20031;-74
2021/06/30 04:38:11;;;;;;;1.60;1.40;;;;;;;15.34;81.41;99081.16;4974459;28;20035;-74
2021/06/30 04:40:37;;;;;;;2.75;1.50;;;;;;;15.34;81.50;99086.47;4956301;28;20027;-74
2021/06/30 04:43:02;;;;;;;1.92;1.65;;;;;;;15.33;81.97;99090.91;4955540;28;20042;-72
2021/06/30 04:45:27;;;;;;;2.22;1.95;;;;;;;15.31;82.08;99086.69;4972727;28;20087;-74
2021/06/30 04:47:53;;;;;;;3.42;2.03;;;;;;;15.29;82.30;99093.94;4957126;28;20039;-75
2021/06/30 04:50:18;;;;;;;2.78;1.83;;;;;;;15.27;82.82;99095.88;4972441;28;20106;-72
2021/06/30 04:52:43;;;;;;;2.88;2.03;;;;;;;15.25;82.94;99096.81;4971693;28;20081;-73
2021/06/30 04:55:10;;;;;;;1.77;1.50;;;;;;;15.24;82.76;99099.63;4971966;28;20139;-74
2021/06/30 04:57:36;;;;;;;1.25;1.10;;;;;;;15.23;82.36;99108.53;4971733;28;20655;-71
2021/06/30 05:00:07;;;;;;;1.92;1.40;;;;;;;15.19;81.96;99107.94;4971509;28;20041;-71
2021/06/30 05:02:32;;;;;;;2.83;1.08;;;;;;;15.13;82.11;99103.13;4938760;28;20034;-73
2021/06/30 05:04:58;;;;;;;1.83;1.58;;;;;;;15.15;82.08;99108.31;4972349;28;20523;-70
2021/06/30 05:07:23;;;;;;;2.45;1.35;;;;;;;15.15;82.15;99109.16;4954984;28;20057;-72
2021/06/30 05:09:49;;;;;;;1.88;1.50;;;;;;;15.17;82.76;99112.53;4954512;28;20089;-72
2021/06/30 05:12:14;;;;;;;2.25;1.30;;;;;;;15.13;82.25;99111.06;4971357;28;20093;-71
2021/06/30 05:14:40;;;;;;;1.77;1.33;;;;;;;15.11;82.83;99107.72;4971165;28;20034;-71
2021/06/30 05:17:05;;;;;;;1.70;1.55;;;;;;;15.08;82.72;99113.25;4970938;28;20431;-73
2021/06/30 05:19:31;;;;;;;2.17;1.67;;;;;;;15.06;83.00;99112.53;4971008;28;20066;-72
2021/06/30 05:21:57;;;;;;;3.92;1.70;;;;;;;15.10;83.45;99110.50;4971887;28;20383;-72
2021/06/30 05:24:23;;;;;;;3.78;1.50;;;;;;;15.02;82.76;99113.75;4970971;28;20034;-71
2021/06/30 05:26:49;;;;;;;2.42;1.45;;;;;;;15.05;82.93;99113.50;4971516;28;20042;-74
2021/06/30 05:29:15;;;;;;;2.33;1.33;;;;;;;15.06;83.04;99114.34;4971953;28;20038;-74
2021/06/30 05:31:40;;;;;;;1.33;1.15;;;;;;;15.05;82.56;99110.84;4970809;28;20548;-72
2021/06/30 05:34:05;;;;;;;1.27;1.10;;;;;;;15.06;82.41;99117.00;4971705;28;20062;-73
2021/06/30 05:36:31;;;;;;;1.00;0.98;;;;;;;15.04;82.24;99111.81;4972476;28;20034;-73
2021/06/30 05:38:56;;;;;;;4.10;1.83;;;;;;;15.06;82.49;99120.50;4974334;28;20026;-75
2021/06/30 05:41:21;;;;;;;4.35;1.48;;;;;;;15.06;82.27;99120.50;4955675;28;20027;-73
2021/06/30 05:43:47;;;;;;;5.35;1.50;;;;;;;15.06;82.79;99115.19;4954975;28;20047;-74
2021/06/30 05:46:12;;;;;;;2.13;1.40;;;;;;;15.06;82.64;99120.50;4972745;28;20035;-75
2021/06/30 05:48:37;;;;;;;2.05;1.65;;;;;;;15.07;82.81;99131.97;4971674;28;20510;-73
2021/06/30 05:51:03;;;;;;;0.90;0.90;;;;;;;15.03;82.46;99126.88;4971043;28;20153;-73
2021/06/30 05:53:28;;;;;;;1.50;1.10;;;;;;;15.04;82.32;99127.75;4971209;28;20050;-71
2021/06/30 05:55:53;;;;;;;1.25;1.10;;;;;;;15.07;82.09;99129.31;4970872;28;20538;-71
2021/06/30 05:58:19;;;;;;;1.48;1.00;;;;;;;15.11;82.06;99131.63;4953064;28;20113;-71
2021/06/30 06:00:44;;;;;;;1.80;1.30;;;;;;;15.12;82.05;99129.81;4970079;28;20041;-74
2021/06/30 06:03:10;;;;;;;1.20;0.95;;;;;;;15.10;81.28;99126.41;4970597;28;20035;-72
2021/06/30 06:05:36;;;;;;;3.25;1.48;;;;;;;15.10;81.87;99132.56;4962080;28;20414;-73
2021/06/30 06:08:02;;;;;;;2.72;1.48;;;;;;;15.12;82.09;99132.47;4969702;28;20038;-74
2021/06/30 06:10:28;;;;;;;2.53;1.77;;;;;;;15.12;81.19;99132.47;4971100;28;20034;-74
2021/06/30 06:12:53;;;;;;;1.35;1.25;;;;;;;15.12;82.21;99135.94;4953545;28;20035;-72
2021/06/30 06:15:19;;;;;;;1.75;1.45;;;;;;;15.10;81.75;99131.72;4971646;28;20163;-73
2021/06/30 06:17:45;;;;;;;2.40;2.10;;;;;;;15.04;80.80;99135.72;4970672;28;20031;-73
2021/06/30 06:20:11;;;;;;;2.08;1.88;;;;;;;14.93;80.81;99130.38;4970561;28;20038;-74
2021/06/30 06:22:37;;;;;;;2.45;2.00;;;;;;;14.92;81.47;99131.38;4957823;28;20034;-73
2021/06/30 06:25:05;;;;;;;6.40;2.90;;;;;;;14.93;81.51;99130.38;4990810;28;20042;-71
2021/06/30 06:27:31;;;;;;;2.55;2.08;;;;;;;14.92;81.85;99123.41;4973755;28;20110;-72
2021/06/30 06:29:56;;;;;;;7.22;3.05;;;;;;;14.96;81.56;99133.66;4992684;28;20092;-72
2021/06/30 06:32:22;;;;;;;2.20;1.80;;;;;;;15.00;81.36;99129.78;4991860;28;20485;-72
2021/06/30 06:34:47;;;;;;;1.98;1.63;;;;;;;15.01;80.95;99122.66;4990928;28;20513;-72
2021/06/30 06:37:15;;;;;;;5.03;1.60;;;;;;;15.05;81.52;99129.44;4989412;28;20039;-72
2021/06/30 06:39:43;;;;;;;2.00;1.42;;;;;;;15.09;80.96;99119.41;4989870;28;20077;-71
2021/06/30 06:42:09;;;;;;;2.95;1.92;;;;;;;15.15;80.58;99126.91;4990528;28;20398;-71
2021/06/30 06:44:37;;;;;;;2.30;1.50;;;;;;;15.20;80.65;99125.56;4986761;28;20089;-71
2021/06/30 06:47:03;;;;;;;4.88;2.53;;;;;;;15.30;80.63;99116.88;4989710;28;20038;-72
2021/06/30 06:49:28;;;;;;;2.13;1.30;;;;;;;15.33;79.27;99114.81;4989884;28;20026;-72
2021/06/30 06:51:53;;;;;;;2.05;1.48;;;;;;;15.42;79.55;99114.06;4989936;28;20522;-72
2021/06/30 06:54:19;;;;;;;2.47;1.27;;;;;;;15.52;79.47;99116.00;4989800;28;20506;-74
2021/06/30 06:56:44;;;;;;;1.50;1.13;;;;;;;15.59;79.32;99117.19;4989322;28;20038;-72
2021/06/30 06:59:09;;;;;;;1.52;1.30;;;;;;;15.64;78.48;99113.19;4989648;28;20039;-75
2021/06/30 07:01:35;;;;;;;1.83;1.27;;;;;;;15.72;78.56;99117.91;4972444;28;20034;-75
2021/06/30 07:04:00;;;;;;;6.50;1.27;;;;;;;15.78;79.23;99111.28;4990443;28;20042;-74
2021/06/30 07:06:26;;;;;;;5.43;2.58;;;;;;;15.73;78.03;99113.47;4990698;28;20053;-74
2021/06/30 07:08:51;;;;;;;3.15;1.65;;;;;;;15.67;79.47;99112.09;4989640;28;20061;-74
2021/06/30 07:11:16;;;;;;;2.92;1.98;;;;;;;15.60;79.49;99122.41;4988989;28;20031;-74
2021/06/30 07:13:42;;;;;;;1.33;1.10;;;;;;;15.54;79.74;99136.16;4993223;28;20057;-73
2021/06/30 07:16:08;;;;;;;2.80;1.40;;;;;;;15.50;79.60;99150.66;4992872;28;20525;-72
2021/06/30 07:18:34;;;;;;;1.95;1.35;;;;;;;15.39;78.82;99148.03;4992874;28;20034;-72
2021/06/30 07:21:01;;;;;;;3.15;1.75;;;;;;;15.33;79.02;99154.63;4993221;28;20045;-72
2021/06/30 07:23:28;;;;;;;3.70;2.30;;;;;;;15.34;79.70;99145.72;4992915;28;20049;-73
2021/06/30 07:25:54;;;;;;;1.83;1.45;;;;;;;15.34;79.39;99153.69;4992870;28;20034;-71
2021/06/30 07:28:19;;;;;;;2.75;1.50;;;;;;;15.34;79.49;99147.53;4992443;28;20026;-71
2021/06/30 07:30:45;;;;;;;2.67;2.05;;;;;;;15.36;80.19;99164.22;4992659;28;20574;-71
2021/06/30 07:33:11;;;;;;;2.63;1.80;;;;;;;15.34;79.18;99171.44;4992484;28;20494;-71
2021/06/30 07:35:36;;;;;;;8.13;4.15;;;;;;;15.30;78.78;99168.16;4992533;28;20026;-71
2021/06/30 07:38:02;;;;;;;6.80;2.67;;;;;;;15.29;79.48;99168.31;4966623;28;20039;-72
2021/06/30 07:40:28;;;;;;;2.97;2.55;;;;;;;15.30;79.42;99164.69;4967961;28;20198;-71
2021/06/30 07:42:55;;;;;;;4.45;2.80;;;;;;;15.28;79.38;99174.56;4973217;28;20437;-72
2021/06/30 07:45:21;;;;;;;4.32;3.40;;;;;;;15.32;79.59;99174.22;4972790;28;20043;-72
2021/06/30 07:47:46;;;;;;;3.13;2.83;;;;;;;15.39;79.48;99178.06;4972802;28;20153;-72
2021/06/30 07:50:12;;;;;;;4.38;3.97;;;;;;;15.41;78.38;99173.50;4973052;28;20047;-72
2021/06/30 07:52:38;;;;;;;6.68;4.85;;;;;;;15.34;78.51;99182.06;4972927;28;20037;-75
2021/06/30 07:55:05;;;;;;;5.10;4.13;;;;;;;15.25;77.92;99178.31;4973064;28;20027;-75
2021/06/30 07:57:30;;;;;;;6.25;4.88;;;;;;;15.19;77.82;99184.13;4972982;28;20085;-74
2021/06/30 07:59:56;;;;;;;5.53;4.47;;;;;;;15.20;78.18;99189.28;4973578;28;20031;-75
2021/06/30 08:02:21;;;;;;;4.45;4.03;;;;;;;15.24;78.64;99188.09;4973229;28;20038;-73
2021/06/30 08:04:47;;;;;;;4.75;3.63;;;;;;;15.32;77.72;99184.00;4973926;28;20042;-73
2021/06/30 08:07:12;;;;;;;7.82;4.97;;;;;;;15.46;77.71;99191.72;4972882;28;20398;-71
2021/06/30 08:09:38;;;;;;;4.35;3.95;;;;;;;15.61;77.72;99185.19;4973797;28;20067;-72
2021/06/30 08:12:09;;;;;;;16.42;5.22;;;;;;;15.72;76.95;99180.84;4966251;28;20049;-74
2021/06/30 08:14:35;;;;;;;9.98;4.18;;;;;;;15.75;77.75;99176.16;4974272;28;20035;-72
2021/06/30 08:17:04;;;;;;;7.88;3.88;;;;;;;15.85;78.67;99173.56;4971897;28;20498;-50
2021/06/30 08:19:29;;;;;;;3.70;3.08;;;;;;;16.08;76.24;99183.19;4983869;28;20038;-50
2021/06/30 08:21:55;;;;;;;3.28;2.47;;;;;;;16.36;74.71;99180.06;4977023;28;20112;-54
2021/06/30 08:24:21;;;;;;;9.73;2.85;;;;;;;16.48;74.25;99179.06;4989295;28;20091;-53
2021/06/30 08:26:46;;;;;;;4.68;3.05;;;;;;;16.55;73.38;99184.72;4991342;28;20494;-49
2021/06/30 08:29:12;;;;;;;4.60;3.15;;;;;;;16.64;72.49;99183.97;4957194;28;20061;-51
2021/06/30 08:31:37;;;;;;;4.10;3.47;;;;;;;16.71;72.23;99190.44;4992401;28;20037;-56
2021/06/30 08:34:03;;;;;;;4.30;3.35;;;;;;;16.74;72.05;99187.53;4993167;28;20505;-51
2021/06/30 08:36:28;;;;;;;4.85;3.05;;;;;;;16.82;72.86;99192.22;4991789;28;20463;-50
2021/06/30 08:38:54;;;;;;;5.38;3.80;;;;;;;16.97;72.52;99182.09;4977822;28;20035;-53
2021/06/30 08:41:21;;;;;;;3.95;3.10;;;;;;;16.94;71.74;99185.88;4964196;28;20050;-52
2021/06/30 08:43:46;;;;;;;6.63;3.78;;;;;;;16.72;70.50;99181.47;4973387;28;20031;-55
2021/06/30 08:46:21;;;;;;;5.90;3.80;;;;;;;16.49;72.26;99186.94;4972103;28;20387;-55
2021/06/30 08:48:50;;;;;;;4.17;3.57;;;;;;;16.39;73.42;99180.69;4985940;28;20034;-55
2021/06/30 08:51:25;;;;;;;4.60;2.67;;;;;;;16.40;73.93;99193.00;4985679;28;20073;-55
2021/06/30 08:53:53;;;;;;;4.40;2.55;;;;;;;16.51;73.12;99186.78;4978556;28;20487;-54
2021/06/30 08:56:19;;;;;;;4.07;2.90;;;;;;;16.59;72.53;99192.31;4948033;28;20043;-54
2021/06/30 08:58:49;;;;;;;3.97;2.97;;;;;;;16.60;73.29;99191.34;4974458;28;20561;-48
2021/06/30 09:01:15;;;;;;;4.32;2.70;;;;;;;16.58;73.38;99185.28;4984901;28;20627;-55
2021/06/30 09:03:49;;;;;;;8.43;2.83;;;;;;;16.63;73.27;99191.06;4985290;28;20042;-55
2021/06/30 09:06:14;;;;;;;3.30;2.80;;;;;;;16.68;72.63;99193.34;4984889;28;20798;-53
2021/06/30 09:08:42;;;;;;;3.28;2.70;;;;;;;16.66;72.21;99187.31;4984427;28;20122;-53
2021/06/30 09:11:28;;;;;;;3.47;3.03;;;;;;;16.49;71.80;99192.25;4984764;28;20046;-75
2021/06/30 09:14:16;;;;;;;4.13;3.58;;;;;;;16.22;73.75;99184.72;4976703;28;20171;-76
2021/06/30 09:17:15;;;;;;;7.60;3.70;;;;;;;16.12;73.73;99188.25;4961794;28;20379;-74
2021/06/30 09:20:03;;;;;;;3.78;2.63;;;;;;;16.19;73.90;99189.44;4966259;28;20038;-74
2021/06/30 09:22:40;;;;;;;4.82;2.60;;;;;;;16.28;73.28;99186.03;4968512;28;20718;-76
2021/06/30 09:25:06;;;;;;;3.25;2.78;;;;;;;16.25;73.59;99184.47;4966124;28;20042;-74
2021/06/30 09:27:44;;;;;;;3.35;2.83;;;;;;;16.23;73.53;99182.91;4958789;28;20038;-76
2021/06/30 09:30:11;;;;;;;3.15;2.67;;;;;;;16.22;74.10;99183.88;4961947;28;20031;-74
2021/06/30 09:33:02;;;;;;;3.30;2.80;;;;;;;16.16;74.46;99192.38;4940365;28;20213;-75
2021/06/30 09:35:33;;;;;;;3.55;3.00;;;;;;;16.03;74.50;99190.72;4975608;28;20116;-76
2021/06/30 09:38:19;;;;;;;4.57;3.95;;;;;;;15.86;73.79;99188.56;4949997;28;20053;-73
2021/06/30 09:40:45;;;;;;;3.55;3.15;;;;;;;15.79;74.32;99193.53;4969273;28;20510;-74
2021/06/30 09:43:26;;;;;;;3.75;3.08;;;;;;;15.93;74.70;99194.25;4984915;28;20050;-72
2021/06/30 09:45:52;;;;;;;4.28;3.67;;;;;;;15.97;73.56;99195.66;4983711;28;20062;-75
2021/06/30 09:48:30;;;;;;;4.38;3.97;;;;;;;15.94;73.47;99202.06;4983949;28;20057;-75
2021/06/30 09:50:57;;;;;;;5.30;3.85;;;;;;;16.01;74.37;99199.78;4984727;28;20049;-74
2021/06/30 09:53:40;;;;;;;5.18;4.30;;;;;;;16.09;73.11;99206.16;4985239;28;20053;-75
2021/06/30 09:56:38;;;;;;;6.68;5.22;;;;;;;16.03;72.62;99205.81;4957042;28;20038;-74
2021/06/30 09:59:09;;;;;;;6.00;5.40;;;;;;;16.12;72.93;99210.41;4949357;28;20116;-80
2021/06/30 10:01:38;;;;;;;6.25;5.07;;;;;;;16.23;72.40;99213.00;4970312;28;20399;-74
2021/06/30 10:04:04;;;;;;;11.70;6.28;;;;;;;16.25;72.89;99205.75;4970396;28;20035;-75
2021/06/30 10:06:35;;;;;;;6.03;5.43;;;;;;;16.38;72.33;99207.41;4967969;28;20034;-76
2021/06/30 10:09:04;;;;;;;6.40;4.78;;;;;;;16.55;71.09;99204.19;4967914;28;20951;-74
2021/06/30 10:11:31;;;;;;;6.47;5.22;;;;;;;16.72;70.69;99203.63;4965607;28;20475;-75
2021/06/30 10:13:57;;;;;;;6.90;4.47;;;;;;;16.77;70.13;99205.91;4966294;28;20035;-78
2021/06/30 10:16:24;;;;;;;4.53;3.80;;;;;;;16.81;69.85;99203.84;4964873;28;20046;-74
2021/06/30 10:18:51;;;;;;;5.85;4.43;;;;;;;16.88;69.84;99205.88;4970548;28;20042;-72
2021/06/30 10:21:19;;;;;;;3.85;3.42;;;;;;;16.92;69.23;99211.78;4964930;28;20101;-74
2021/06/30 10:23:45;;;;;;;4.60;3.70;;;;;;;16.84;68.53;99215.09;4978132;28;20125;-74
2021/06/30 10:26:12;;;;;;;4.53;4.07;;;;;;;16.70;69.10;99216.19;4984786;28;20116;-74
2021/06/30 10:28:38;;;;;;;5.32;3.88;;;;;;;16.75;70.38;99214.00;4966682;28;20039;-76
2021/06/30 10:31:04;;;;;;;5.15;4.47;;;;;;;16.97;68.22;99216.72;4984758;28;20092;-75
2021/06/30 10:33:38;;;;;;;4.15;3.22;;;;;;;17.16;67.44;99211.50;4982451;28;20030;-75
2021/06/30 10:36:04;;;;;;;5.35;3.28;;;;;;;17.34;67.99;99219.72;4983864;28;20101;-74
2021/06/30 10:38:51;;;;;;;4.60;2.88;;;;;;;17.57;66.72;99215.06;4985189;28;20069;-73
2021/06/30 10:41:55;;;;;;;4.85;4.07;;;;;;;17.44;66.37;99225.09;4983932;28;20038;-73
2021/06/30 10:44:25;;;;;;;4.57;2.90;;;;;;;17.15;68.17;99220.47;4985524;28;20039;-75
2021/06/30 10:46:53;;;;;;;5.00;3.03;;;;;;;17.14;68.10;99224.09;4960308;28;20121;-76
2021/06/30 10:49:21;;;;;;;4.70;3.10;;;;;;;17.19;68.33;99235.22;4990164;28;20045;-76
2021/06/30 10:52:08;;;;;;;5.15;3.33;;;;;;;17.24;66.98;99227.66;4991172;28;20049;-75
2021/06/30 10:54:40;;;;;;;4.20;2.75;;;;;;;17.26;66.37;99238.19;4991619;28;20038;-76
2021/06/30 10:57:23;;;;;;;4.40;2.53;;;;;;;17.30;66.32;99239.59;4973872;28;20096;-72
2021/06/30 10:59:57;;;;;;;5.00;3.30;;;;;;;17.28;65.59;99231.75;4950759;28;20046;-76
2021/06/30 11:02:23;;;;;;;4.50;3.13;;;;;;;17.11;66.30;99240.34;4968151;28;20561;-74
2021/06/30 11:04:49;;;;;;;6.20;3.50;;;;;;;16.92;67.30;99246.38;4968283;28;20046;-77
2021/06/30 11:07:34;;;;;;;10.68;5.05;;;;;;;16.89;69.61;99242.16;4992110;28;20042;-74
2021/06/30 11:10:21;;;;;;;4.88;3.28;;;;;;;16.92;69.24;99231.25;4993288;28;20049;-73
2021/06/30 11:13:00;;;;;;;6.40;4.80;;;;;;;17.00;68.59;99232.41;4988198;28;20652;-76
2021/06/30 11:15:40;;;;;;;6.68;4.18;;;;;;;17.20;68.37;99222.72;4991016;28;20046;-76
2021/06/30 11:18:11;;;;;;;7.68;2.88;;;;;;;17.68;66.45;99230.13;4985514;28;20073;-76
2021/06/30 11:20:46;;;;;;;5.80;3.53;;;;;;;17.86;65.07;99236.53;4980860;28;20050;-74
2021/06/30 11:23:22;;;;;;;3.72;3.15;;;;;;;17.89;65.41;99236.25;4986539;28;20046;-75
2021/06/30 11:25:49;;;;;;;7.43;3.95;;;;;;;17.85;65.10;99234.84;4961676;28;20422;-75
2021/06/30 11:28:30;;;;;;;10.60;3.03;;;;;;;17.88;63.51;99233.72;4950366;28;20499;-74
2021/06/30 11:30:55;;;;;;;5.25;2.83;;;;;;;17.91;64.12;99233.44;4987392;28;20054;-75
2021/06/30 11:33:21;;;;;;;4.47;2.72;;;;;;;17.90;63.92;99237.94;4987226;28;20042;-75
2021/06/30 11:35:47;;;;;;;4.55;3.28;;;;;;;17.92;64.48;99235.16;4987733;28;20058;-74